createdAt,value
2022-08-30T00:01:33.072Z,11.42
2022-08-30T00:04:01.131Z,11.32
2022-08-30T00:06:32.317Z,11.20
2022-08-30T00:09:00.060Z,11.10
2022-08-30T00:11:28.351Z,11.10
2022-08-30T00:13:56.734Z,11.10
2022-08-30T00:16:24.635Z,11.10
2022-08-30T00:18:52.078Z,11.16
2022-08-30T00:21:19.284Z,11.22
2022-08-30T00:23:46.231Z,11.23
2022-08-30T00:26:13.103Z,11.29
2022-08-30T00:28:40.081Z,11.30
2022-08-30T00:31:07.704Z,11.30
2022-08-30T00:33:34.865Z,11.29
2022-08-30T00:36:01.747Z,11.29
2022-08-30T00:38:28.722Z,11.31
2022-08-30T00:40:55.581Z,11.33
2022-08-30T00:43:27.837Z,11.34
2022-08-30T00:45:55.792Z,11.29
2022-08-30T00:48:23.298Z,11.20
2022-08-30T00:50:56.156Z,11.25
2022-08-30T00:53:29.390Z,11.18
2022-08-30T00:55:57.634Z,11.17
2022-08-30T00:58:29.731Z,11.16
2022-08-30T01:01:00.908Z,11.17
2022-08-30T01:03:28.651Z,11.19
2022-08-30T01:05:58.787Z,11.21
2022-08-30T01:08:25.777Z,11.32
2022-08-30T01:10:53.984Z,11.46
2022-08-30T01:13:22.427Z,11.58
2022-08-30T01:15:50.773Z,11.65
2022-08-30T01:18:21.310Z,11.67
2022-08-30T01:21:16.926Z,11.83
2022-08-30T01:23:46.447Z,11.91
2022-08-30T01:26:21.977Z,11.95
2022-08-30T01:28:55.984Z,11.96
2022-08-30T01:31:23.217Z,11.89
2022-08-30T01:33:52.231Z,11.90
2022-08-30T01:36:21.709Z,11.79
2022-08-30T01:38:51.701Z,11.74
2022-08-30T01:41:26.083Z,11.63
2022-08-30T01:43:55.747Z,11.56
2022-08-30T01:46:25.525Z,11.50
2022-08-30T01:48:54.594Z,11.44
2022-08-30T01:51:23.999Z,11.40
2022-08-30T01:53:51.081Z,11.41
2022-08-30T01:57:34.281Z,11.36
2022-08-30T02:00:00.869Z,11.33
2022-08-30T02:02:29.536Z,11.27
2022-08-30T02:04:57.369Z,11.22
2022-08-30T02:07:25.780Z,11.11
2022-08-30T02:09:53.336Z,11.03
2022-08-30T02:12:21.103Z,10.93
2022-08-30T02:14:47.848Z,10.89
2022-08-30T02:17:17.297Z,10.88
2022-08-30T02:19:43.952Z,10.89
2022-08-30T02:22:11.408Z,10.92
2022-08-30T02:24:38.507Z,10.93
2022-08-30T02:27:05.620Z,10.96
2022-08-30T02:29:32.269Z,10.99
2022-08-30T02:31:59.469Z,10.99
2022-08-30T02:34:26.278Z,11.03
2022-08-30T02:36:52.945Z,11.02
2022-08-30T02:39:19.558Z,11.02
2022-08-30T02:41:46.294Z,10.99
2022-08-30T02:44:12.930Z,10.98
2022-08-30T02:46:39.718Z,10.99
2022-08-30T02:49:32.103Z,11.01
2022-08-30T02:51:55.368Z,11.05
2022-08-30T02:54:22.033Z,11.04
2022-08-30T02:56:50.156Z,11.03
2022-08-30T02:59:18.148Z,11.03
2022-08-30T03:01:44.879Z,10.92
2022-08-30T03:04:11.879Z,10.79
2022-08-30T03:06:38.929Z,10.67
2022-08-30T03:09:05.644Z,10.53
2022-08-30T03:11:32.714Z,10.47
2022-08-30T03:13:59.755Z,10.46
2022-08-30T03:16:26.514Z,10.50
2022-08-30T03:18:53.241Z,10.50
2022-08-30T03:21:19.881Z,10.54
2022-08-30T03:23:46.545Z,10.56
2022-08-30T03:26:15.059Z,10.56
2022-08-30T03:28:42.907Z,10.55
2022-08-30T03:31:10.173Z,10.61
2022-08-30T03:33:37.953Z,10.69
2022-08-30T03:36:05.692Z,10.82
2022-08-30T03:38:32.423Z,11.00
2022-08-30T03:40:59.112Z,11.20
2022-08-30T03:43:26.517Z,11.39
2022-08-30T03:45:53.337Z,11.58
2022-08-30T03:48:19.929Z,11.71
2022-08-30T03:50:47.083Z,11.81
2022-08-30T03:53:13.754Z,11.92
2022-08-30T03:58:40.729Z,12.00
2022-08-30T04:01:08.771Z,11.94
2022-08-30T04:03:35.691Z,11.92
2022-08-30T04:06:06.033Z,11.91
2022-08-30T04:08:32.996Z,11.75
2022-08-30T04:11:00.517Z,11.63
2022-08-30T04:13:27.859Z,11.51
2022-08-30T04:15:55.497Z,11.52
2022-08-30T04:18:22.765Z,11.52
2022-08-30T04:20:54.966Z,11.66
2022-08-30T04:23:23.083Z,11.80
2022-08-30T04:25:49.786Z,11.92
2022-08-30T04:28:16.635Z,12.08
2022-08-30T04:30:47.744Z,12.20
2022-08-30T04:33:18.220Z,12.38
2022-08-30T04:35:49.156Z,12.48
2022-08-30T04:38:17.641Z,12.65
2022-08-30T04:40:49.662Z,12.82
2022-08-30T04:43:16.869Z,12.94
2022-08-30T04:45:43.900Z,13.06
2022-08-30T04:48:13.483Z,13.16
2022-08-30T04:50:53.860Z,13.29
2022-08-30T04:53:24.270Z,13.37
2022-08-30T04:56:08.160Z,13.43
2022-08-30T04:58:35.050Z,13.48
2022-08-30T05:01:04.665Z,13.57
2022-08-30T05:03:42.842Z,13.59
2022-08-30T05:06:12.397Z,13.60
2022-08-30T05:08:39.367Z,13.63
2022-08-30T05:11:13.456Z,13.68
2022-08-30T05:13:40.340Z,13.71
2022-08-30T05:16:08.387Z,13.75
2022-08-30T05:18:38.886Z,13.80
2022-08-30T05:21:11.885Z,13.81
2022-08-30T05:23:40.230Z,13.84
2022-08-30T05:26:29.996Z,13.86
2022-08-30T05:28:57.114Z,13.89
2022-08-30T05:31:38.293Z,13.96
2022-08-30T05:34:05.561Z,14.00
2022-08-30T05:36:38.472Z,14.02
2022-08-30T05:39:07.698Z,14.09
2022-08-30T05:41:37.431Z,14.12
2022-08-30T05:44:08.811Z,14.22
2022-08-30T05:46:36.760Z,14.23
2022-08-30T05:49:06.670Z,14.29
2022-08-30T05:51:45.077Z,14.37
2022-08-30T05:54:16.644Z,14.46
2022-08-30T06:09:58.455Z,15.09
2022-08-30T06:12:25.742Z,15.25
2022-08-30T06:14:53.643Z,15.42
2022-08-30T06:17:20.583Z,15.55
2022-08-30T06:19:47.459Z,15.74
2022-08-30T06:22:14.331Z,15.88
2022-08-30T06:24:56.939Z,16.15
2022-08-30T06:27:24.312Z,16.44
2022-08-30T06:29:52.094Z,16.90
2022-08-30T06:32:18.788Z,17.36
2022-08-30T06:34:45.562Z,17.70
2022-08-30T06:37:12.230Z,18.04
2022-08-30T06:39:57.650Z,18.18
2022-08-30T06:42:24.638Z,18.30
2022-08-30T06:44:51.553Z,18.36
2022-08-30T06:47:18.304Z,18.34
2022-08-30T06:49:44.908Z,18.18
2022-08-30T06:52:11.777Z,18.10
2022-08-30T06:54:38.827Z,18.01
2022-08-30T06:57:05.680Z,18.03
2022-08-30T06:59:33.234Z,18.02
2022-08-30T07:01:59.923Z,17.99
2022-08-30T07:04:26.887Z,17.99
2022-08-30T07:06:53.647Z,18.03
2022-08-30T07:09:23.130Z,18.07
2022-08-30T07:11:51.229Z,18.15
2022-08-30T07:14:19.097Z,18.25
2022-08-30T07:16:46.919Z,18.37
2022-08-30T07:19:21.127Z,18.54
2022-08-30T07:21:49.378Z,18.78
2022-08-30T07:24:16.925Z,19.15
2022-08-30T07:26:49.022Z,19.49
2022-08-30T07:29:17.561Z,19.83
2022-08-30T07:31:44.573Z,20.10
2022-08-30T07:34:11.185Z,20.31
2022-08-30T07:36:39.138Z,20.38
2022-08-30T07:39:07.010Z,20.52
2022-08-30T07:41:39.038Z,20.97
2022-08-30T07:44:07.714Z,21.27
2022-08-30T07:46:35.265Z,22.05
2022-08-30T07:49:03.948Z,22.66
2022-08-30T07:51:31.977Z,23.76
2022-08-30T07:53:58.889Z,24.70
2022-08-30T07:56:26.109Z,25.56
2022-08-30T08:00:34.027Z,26.02
2022-08-30T08:03:14.993Z,25.87
2022-08-30T08:05:43.997Z,25.32
2022-08-30T08:08:11.692Z,25.08
2022-08-30T08:10:40.480Z,24.76
2022-08-30T08:13:07.639Z,24.71
2022-08-30T08:15:38.783Z,24.65
2022-08-30T08:18:06.790Z,24.87
2022-08-30T08:20:34.669Z,25.11
2022-08-30T08:23:02.348Z,25.52
2022-08-30T08:25:29.216Z,25.86
2022-08-30T08:27:57.615Z,26.78
2022-08-30T08:30:24.595Z,27.71
2022-08-30T08:32:51.934Z,28.27
2022-08-30T08:35:18.765Z,28.75
2022-08-30T08:37:45.436Z,28.95
2022-08-30T08:40:16.875Z,28.73
2022-08-30T08:43:05.252Z,28.31
2022-08-30T08:45:51.989Z,27.26
2022-08-30T08:48:51.825Z,27.59
2022-08-30T08:51:41.737Z,28.27
2022-08-30T08:54:17.579Z,28.17
2022-08-30T08:56:44.218Z,27.73
2022-08-30T08:59:12.256Z,27.41
2022-08-30T09:01:39.446Z,27.39
2022-08-30T09:04:11.867Z,27.21
2022-08-30T09:06:45.208Z,26.71
2022-08-30T09:09:12.923Z,26.55
2022-08-30T09:11:41.724Z,26.87
2022-08-30T09:14:17.037Z,27.21
2022-08-30T09:16:48.315Z,27.53
2022-08-30T09:19:53.949Z,27.27
2022-08-30T09:22:34.251Z,26.59
2022-08-30T09:25:08.474Z,26.35
2022-08-30T09:27:38.709Z,26.45
2022-08-30T09:30:22.308Z,26.26
2022-08-30T09:33:00.960Z,25.94
2022-08-30T09:35:36.544Z,25.38
2022-08-30T09:38:13.068Z,24.90
2022-08-30T09:40:44.106Z,24.96
2022-08-30T09:43:16.711Z,25.28
2022-08-30T09:45:49.994Z,25.18
2022-08-30T09:48:27.663Z,25.03
2022-08-30T09:51:34.013Z,24.73
2022-08-30T09:54:18.086Z,24.36
2022-08-30T09:56:53.415Z,23.85
2022-08-30T10:05:17.182Z,23.38
2022-08-30T10:05:33.371Z,23.29
2022-08-30T10:15:04.761Z,23.07
2022-08-30T10:17:49.201Z,23.02
2022-08-30T10:20:30.604Z,23.04
2022-08-30T10:23:02.672Z,23.00
2022-08-30T10:25:35.918Z,22.91
2022-08-30T10:28:38.458Z,22.83
2022-08-30T10:31:18.692Z,22.74
2022-08-30T10:33:49.639Z,22.76
2022-08-30T10:36:37.757Z,22.71
2022-08-30T10:44:49.883Z,23.52
2022-08-30T10:47:39.783Z,23.70
2022-08-30T10:50:38.955Z,23.76
2022-08-30T10:53:38.504Z,23.73
2022-08-30T10:58:57.955Z,23.71
2022-08-30T11:02:25.234Z,23.76
2022-08-30T11:09:26.654Z,23.94
2022-08-30T11:18:17.351Z,23.53
2022-08-30T11:21:15.832Z,23.44
2022-08-30T11:24:10.798Z,23.15
2022-08-30T11:27:34.716Z,22.94
2022-08-30T11:30:47.998Z,22.77
2022-08-30T11:33:42.822Z,22.84
2022-08-30T11:37:01.022Z,22.98
2022-08-30T11:40:03.895Z,23.11
2022-08-30T11:42:46.531Z,23.16
2022-08-30T11:48:54.634Z,23.21
2022-08-30T11:54:52.889Z,23.10
2022-08-30T11:57:41.431Z,23.02
2022-08-30T12:03:08.907Z,22.96
2022-08-30T12:09:21.832Z,23.06
2022-08-30T12:12:27.120Z,23.03
2022-08-30T12:14:59.994Z,22.98
2022-08-30T12:18:16.433Z,22.97
2022-08-30T12:41:32.424Z,23.43
2022-08-30T12:44:00.734Z,23.49
2022-08-30T12:46:34.079Z,23.55
2022-08-30T12:49:01.042Z,23.56
2022-08-30T12:51:48.600Z,23.55
2022-08-30T12:54:29.668Z,23.61
2022-08-30T12:57:18.969Z,23.66
2022-08-30T12:59:58.543Z,23.62
2022-08-30T13:02:45.181Z,23.59
2022-08-30T13:05:39.226Z,23.51
2022-08-30T13:08:22.694Z,23.47
2022-08-30T13:11:20.080Z,23.40
2022-08-30T13:13:52.017Z,23.16
2022-08-30T13:16:20.634Z,23.05
2022-08-30T13:19:19.242Z,22.89
2022-08-30T13:21:54.149Z,22.64
2022-08-30T13:24:25.229Z,22.50
2022-08-30T13:26:54.766Z,22.32
2022-08-30T13:29:26.527Z,22.30
2022-08-30T13:31:53.719Z,22.31
2022-08-30T13:34:22.686Z,22.31
2022-08-30T13:36:57.991Z,22.31
2022-08-30T13:39:25.712Z,22.28
2022-08-30T13:41:53.184Z,22.24
2022-08-30T13:44:20.341Z,22.15
2022-08-30T13:46:54.627Z,22.10
2022-08-30T13:49:44.231Z,22.04
2022-08-30T13:52:22.520Z,22.04
2022-08-30T13:54:51.837Z,22.06
2022-08-30T14:03:31.173Z,22.02
2022-08-30T14:06:29.170Z,22.04
2022-08-30T14:08:48.082Z,22.10
2022-08-30T14:11:19.717Z,22.15
2022-08-30T14:16:39.896Z,22.20
2022-08-30T14:19:08.357Z,22.18
2022-08-30T14:21:35.847Z,22.08
2022-08-30T14:24:04.851Z,22.00
2022-08-30T14:26:35.805Z,21.96
2022-08-30T14:29:09.240Z,21.90
2022-08-30T14:31:37.691Z,21.84
2022-08-30T14:34:05.718Z,21.77
2022-08-30T14:36:34.105Z,21.67
2022-08-30T14:39:01.160Z,21.61
2022-08-30T14:41:27.949Z,21.63
2022-08-30T14:43:54.558Z,21.66
2022-08-30T14:46:22.152Z,21.68
2022-08-30T14:48:50.369Z,21.71
2022-08-30T14:51:20.759Z,21.64
2022-08-30T14:53:48.644Z,21.56
2022-08-30T14:56:17.162Z,21.46
2022-08-30T14:58:48.128Z,21.33
2022-08-30T15:01:14.876Z,21.23
2022-08-30T15:03:42.204Z,21.12
2022-08-30T15:06:09.286Z,21.08
2022-08-30T15:08:36.462Z,21.03
2022-08-30T15:11:11.314Z,20.99
2022-08-30T15:13:38.303Z,20.97
2022-08-30T15:16:14.586Z,20.99
2022-08-30T15:18:41.702Z,21.00
2022-08-30T15:21:08.971Z,21.00
2022-08-30T15:23:36.744Z,20.99
2022-08-30T15:26:04.194Z,21.00
2022-08-30T15:28:31.380Z,20.97
2022-08-30T15:30:58.361Z,20.94
2022-08-30T15:33:25.662Z,20.88
2022-08-30T15:35:52.807Z,20.78
2022-08-30T15:38:21.917Z,20.69
2022-08-30T15:40:50.208Z,20.67
2022-08-30T15:43:17.882Z,20.65
2022-08-30T15:45:45.296Z,20.59
2022-08-30T15:48:12.382Z,20.53
2022-08-30T15:50:39.253Z,20.49
2022-08-30T15:53:07.393Z,20.45
2022-08-30T15:55:34.274Z,20.42
2022-08-30T15:58:00.924Z,20.38
2022-08-30T16:00:27.712Z,20.38
2022-08-30T16:04:35.159Z,20.36
2022-08-30T16:07:01.886Z,20.36
2022-08-30T16:09:30.060Z,20.33
2022-08-30T16:11:59.899Z,20.22
2022-08-30T16:14:27.691Z,20.17
2022-08-30T16:16:55.378Z,20.10
2022-08-30T16:19:22.153Z,19.92
2022-08-30T16:21:49.015Z,19.81
2022-08-30T16:24:18.761Z,19.71
2022-08-30T16:26:49.496Z,19.58
2022-08-30T16:29:16.209Z,19.44
2022-08-30T16:31:44.504Z,19.29
2022-08-30T16:34:12.966Z,19.18
2022-08-30T16:36:39.853Z,19.10
2022-08-30T16:39:08.683Z,19.01
2022-08-30T16:41:36.898Z,18.92
2022-08-30T16:44:05.251Z,18.82
2022-08-30T16:46:33.337Z,18.73
2022-08-30T16:49:03.548Z,18.64
2022-08-30T16:51:33.122Z,18.48
2022-08-30T16:54:04.456Z,18.43
2022-08-30T16:56:35.096Z,18.29
2022-08-30T16:59:03.372Z,18.19
2022-08-30T17:01:35.027Z,18.08
2022-08-30T17:04:02.799Z,18.00
2022-08-30T17:06:29.799Z,17.88
2022-08-30T17:08:56.747Z,17.77
2022-08-30T17:11:24.272Z,17.67
2022-08-30T17:13:51.159Z,17.56
2022-08-30T17:16:27.912Z,17.50
2022-08-30T17:19:00.458Z,17.38
2022-08-30T17:21:29.267Z,17.30
2022-08-30T17:24:01.760Z,17.22
2022-08-30T17:26:35.259Z,17.15
2022-08-30T17:29:02.818Z,17.06
2022-08-30T17:31:31.090Z,16.95
2022-08-30T17:34:03.410Z,16.89
2022-08-30T17:36:32.501Z,16.81
2022-08-30T17:38:59.156Z,16.74
2022-08-30T17:41:25.764Z,16.65
2022-08-30T17:43:53.720Z,16.57
2022-08-30T17:46:21.114Z,16.50
2022-08-30T17:48:47.835Z,16.39
2022-08-30T17:51:24.573Z,16.33
2022-08-30T17:53:51.133Z,16.27
2022-08-30T17:56:17.966Z,16.20
2022-08-30T17:58:44.538Z,16.07
2022-08-30T18:01:14.429Z,16.00
2022-08-30T18:05:30.402Z,15.83
2022-08-30T18:07:59.063Z,15.77
2022-08-30T18:10:34.453Z,15.73
2022-08-30T18:13:01.319Z,15.73
2022-08-30T18:15:29.438Z,15.66
2022-08-30T18:17:56.024Z,15.60
2022-08-30T18:20:22.707Z,15.54
2022-08-30T18:22:53.302Z,15.52
2022-08-30T18:25:20.079Z,15.47
2022-08-30T18:27:50.263Z,15.43
2022-08-30T18:30:31.157Z,15.40
2022-08-30T18:33:00.467Z,15.35
2022-08-30T18:35:27.833Z,15.28
2022-08-30T18:37:54.563Z,15.26
2022-08-30T18:40:21.411Z,15.23
2022-08-30T18:42:48.178Z,15.18
2022-08-30T18:45:15.604Z,15.14
2022-08-30T18:47:42.631Z,15.15
2022-08-30T18:50:09.366Z,15.11
2022-08-30T18:52:35.968Z,15.04
2022-08-30T18:55:02.738Z,14.99
2022-08-30T18:57:29.315Z,14.92
2022-08-30T18:59:57.829Z,14.86
2022-08-30T19:02:25.102Z,14.78
2022-08-30T19:04:54.950Z,14.70
2022-08-30T19:07:26.695Z,14.60
2022-08-30T19:09:59.059Z,14.53
2022-08-30T19:12:27.620Z,14.47
2022-08-30T19:14:54.534Z,14.40
2022-08-30T19:17:23.995Z,14.32
2022-08-30T19:19:52.363Z,14.27
2022-08-30T19:22:27.424Z,14.23
2022-08-30T19:24:57.285Z,14.16
2022-08-30T19:27:38.431Z,14.11
2022-08-30T19:30:10.075Z,14.04
2022-08-30T19:32:37.127Z,13.97
2022-08-30T19:35:04.565Z,13.89
2022-08-30T19:37:31.528Z,13.84
2022-08-30T19:40:01.459Z,13.77
2022-08-30T19:42:28.571Z,13.72
2022-08-30T19:44:55.208Z,13.69
2022-08-30T19:47:21.883Z,13.66
2022-08-30T19:49:48.660Z,13.62
2022-08-30T19:52:15.422Z,13.61
2022-08-30T19:54:42.166Z,13.51
2022-08-30T19:57:10.438Z,13.47
2022-08-30T19:59:38.149Z,13.41
2022-08-30T20:02:05.540Z,13.34
2022-08-30T20:06:36.017Z,13.27
2022-08-30T20:09:04.186Z,13.20
2022-08-30T20:11:30.840Z,13.17
2022-08-30T20:13:57.677Z,13.13
2022-08-30T20:16:33.257Z,13.10
2022-08-30T20:19:06.147Z,13.02
2022-08-30T20:21:32.909Z,12.98
2022-08-30T20:24:00.966Z,12.96
2022-08-30T20:26:33.962Z,12.92
2022-08-30T20:29:02.655Z,12.91
2022-08-30T20:31:29.674Z,12.87
2022-08-30T20:33:57.133Z,12.85
2022-08-30T20:36:24.439Z,12.85
2022-08-30T20:38:51.236Z,12.81
2022-08-30T20:41:20.343Z,12.81
2022-08-30T20:43:48.878Z,12.78
2022-08-30T20:46:18.574Z,12.78
2022-08-30T20:48:46.453Z,12.78
2022-08-30T20:51:18.022Z,12.80
2022-08-30T20:53:45.119Z,12.82
2022-08-30T20:56:18.031Z,12.86
2022-08-30T20:58:45.472Z,12.89
2022-08-30T21:01:12.897Z,12.86
2022-08-30T21:03:41.130Z,12.81
2022-08-30T21:06:08.077Z,12.75
2022-08-30T21:08:37.578Z,12.70
2022-08-30T21:11:04.770Z,12.64
2022-08-30T21:13:31.751Z,12.60
2022-08-30T21:16:03.308Z,12.55
2022-08-30T21:18:33.123Z,12.51
2022-08-30T21:21:13.895Z,12.45
2022-08-30T21:23:40.777Z,12.39
2022-08-30T21:26:08.719Z,12.37
2022-08-30T21:28:35.596Z,12.39
2022-08-30T21:31:12.783Z,12.45
2022-08-30T21:33:40.691Z,12.43
2022-08-30T21:36:26.735Z,12.41
2022-08-30T21:38:54.068Z,12.46
2022-08-30T21:41:26.906Z,12.47
2022-08-30T21:43:58.149Z,12.50
2022-08-30T21:46:29.302Z,12.50
2022-08-30T21:48:59.381Z,12.47
2022-08-30T21:51:25.976Z,12.45
2022-08-30T21:53:52.561Z,12.50
2022-08-30T21:56:22.177Z,12.54
2022-08-30T21:58:49.208Z,12.58
2022-08-30T22:01:25.311Z,12.59
2022-08-30T22:03:54.811Z,12.63
2022-08-30T22:07:32.378Z,12.70
2022-08-30T22:10:02.176Z,12.76
2022-08-30T22:12:28.799Z,12.80
2022-08-30T22:14:55.353Z,12.87
2022-08-30T22:17:28.405Z,12.91
2022-08-30T22:19:56.976Z,12.95
2022-08-30T22:22:26.166Z,12.98
2022-08-30T22:24:52.763Z,13.05
2022-08-30T22:27:19.358Z,13.08
2022-08-30T22:29:47.028Z,13.10
2022-08-30T22:32:13.784Z,13.10
2022-08-30T22:34:40.752Z,13.04
2022-08-30T22:37:08.009Z,13.02
2022-08-30T22:39:34.573Z,13.01
2022-08-30T22:42:01.176Z,13.02
2022-08-30T22:44:27.778Z,13.03
2022-08-30T22:46:54.539Z,13.10
2022-08-30T22:49:21.156Z,13.12
2022-08-30T22:51:47.726Z,13.18
2022-08-30T22:54:14.292Z,13.18
2022-08-30T22:56:41.669Z,13.22
2022-08-30T22:59:08.924Z,13.27
2022-08-30T23:01:42.982Z,13.33
2022-08-30T23:04:10.463Z,13.39
2022-08-30T23:06:37.309Z,13.43
2022-08-30T23:09:06.357Z,13.47
2022-08-30T23:11:33.234Z,13.53
2022-08-30T23:14:04.808Z,13.55
2022-08-30T23:16:32.646Z,13.60
2022-08-30T23:18:59.898Z,13.62
2022-08-30T23:21:28.933Z,13.65
2022-08-30T23:24:15.196Z,13.67
2022-08-30T23:27:02.958Z,13.68
2022-08-30T23:29:48.947Z,13.70
2022-08-30T23:32:34.246Z,13.70
2022-08-30T23:35:19.237Z,13.73
2022-08-30T23:38:05.103Z,13.75
2022-08-30T23:40:50.427Z,13.78
2022-08-30T23:43:35.629Z,13.78
2022-08-30T23:46:20.864Z,13.85
2022-08-30T23:49:07.511Z,13.86
2022-08-30T23:51:54.352Z,13.90
2022-08-30T23:54:39.593Z,13.96
2022-08-30T23:57:25.066Z,14.01
